Time;durP1;ratioP1;P1;durP2;ratioP2;P2;SDS_P1;SDS_P2;PMS_P1;PMS_P2;Temp;Humidity;BMP_temperature;BMP_pressure;BME280_temperature;BME280_humidity;BME280_pressure;Samples;Min_cycle;Max_cycle;Signal;HPM_P1;HPM_P2
2021/12/30 00:02:29;;;;;;;6.90;2.83;;;12.50;99.90;;;;;;5020846;28;20449;-71
2021/12/30 00:04:56;;;;;;;5.13;2.07;;;12.60;99.90;;;;;;5026310;28;20654;-71
2021/12/30 00:07:24;;;;;;;8.47;2.23;;;12.60;99.90;;;;;;5040875;28;20445;-71
2021/12/30 00:09:50;;;;;;;4.37;1.67;;;12.60;99.90;;;;;;5023446;28;20502;-70
2021/12/30 00:12:17;;;;;;;4.93;2.53;;;12.50;99.90;;;;;;5025157;28;21694;-71
2021/12/30 00:14:44;;;;;;;5.03;1.30;;;12.50;99.90;;;;;;5040008;28;20881;-71
2021/12/30 00:17:11;;;;;;;6.53;2.10;;;12.50;99.90;;;;;;5038319;28;20476;-71
2021/12/30 00:19:37;;;;;;;5.30;2.03;;;12.50;99.90;;;;;;5036762;28;20445;-71
2021/12/30 00:22:04;;;;;;;5.77;1.77;;;12.50;99.90;;;;;;5019108;28;20994;-71
2021/12/30 00:24:32;;;;;;;5.70;2.90;;;12.40;99.90;;;;;;5028195;28;20457;-71
2021/12/30 00:26:59;;;;;;;3.50;1.60;;;12.30;99.90;;;;;;5027571;28;20465;-71
2021/12/30 00:29:26;;;;;;;3.57;2.10;;;12.30;99.90;;;;;;5026703;28;20537;-71
2021/12/30 00:31:53;;;;;;;15.97;3.07;;;12.30;99.90;;;;;;5020051;28;20481;-71
2021/12/30 00:34:19;;;;;;;5.78;2.05;;;12.30;99.90;;;;;;5035155;28;20513;-71
2021/12/30 00:36:46;;;;;;;5.20;1.80;;;12.30;99.90;;;;;;5036217;28;20253;-72
2021/12/30 00:39:13;;;;;;;5.30;1.97;;;12.30;99.90;;;;;;5025013;28;20454;-71
2021/12/30 00:41:41;;;;;;;6.70;2.47;;;12.30;99.90;;;;;;5018540;28;21005;-71
2021/12/30 00:44:07;;;;;;;3.20;1.43;;;12.30;99.90;;;;;;5023917;28;20919;-72
2021/12/30 00:46:34;;;;;;;4.03;1.80;;;12.30;99.90;;;;;;5026346;28;20449;-70
2021/12/30 00:49:00;;;;;;;5.10;1.87;;;12.30;99.90;;;;;;5030371;28;20444;-72
2021/12/30 00:51:27;;;;;;;10.03;3.73;;;12.30;99.90;;;;;;5033183;28;20896;-71
2021/12/30 00:53:54;;;;;;;2.13;1.93;;;12.30;99.90;;;;;;5027494;28;20478;-71
2021/12/30 00:56:21;;;;;;;5.03;2.10;;;12.30;99.90;;;;;;5018398;28;20736;-71
2021/12/30 00:58:49;;;;;;;4.03;2.47;;;12.30;99.90;;;;;;5023130;28;20492;-71
2021/12/30 01:01:16;;;;;;;2.00;1.40;;;12.30;99.90;;;;;;5034456;28;20520;-71
2021/12/30 01:03:42;;;;;;;3.90;1.70;;;12.30;99.90;;;;;;5026866;28;21030;-71
2021/12/30 01:06:09;;;;;;;4.03;2.03;;;12.30;99.90;;;;;;5028212;28;20509;-71
2021/12/30 01:08:35;;;;;;;3.17;2.53;;;12.30;99.90;;;;;;5026027;28;20475;-71
2021/12/30 01:11:07;;;;;;;4.23;1.60;;;12.30;99.90;;;;;;5023844;28;20902;-71
2021/12/30 01:13:38;;;;;;;6.83;2.13;;;12.30;99.90;;;;;;5023678;28;20487;-72
2021/12/30 01:16:15;;;;;;;1.93;1.67;;;12.30;99.90;;;;;;5026519;28;20453;-72
2021/12/30 01:18:55;;;;;;;9.17;2.23;;;12.30;99.90;;;;;;5025051;28;20653;-72
2021/12/30 01:21:22;;;;;;;5.67;1.93;;;12.20;99.90;;;;;;5026855;28;20839;-72
2021/12/30 01:23:49;;;;;;;3.70;1.60;;;12.20;99.90;;;;;;5037684;28;20477;-71
2021/12/30 01:26:17;;;;;;;3.83;1.47;;;12.20;99.90;;;;;;5021439;28;20458;-72
2021/12/30 01:28:44;;;;;;;3.67;1.93;;;12.20;99.90;;;;;;5020812;28;20461;-72
2021/12/30 01:31:12;;;;;;;5.97;1.97;;;12.10;99.90;;;;;;5019951;28;20465;-72
2021/12/30 01:33:39;;;;;;;8.10;2.50;;;12.10;99.90;;;;;;5018972;28;20470;-71
2021/12/30 01:36:06;;;;;;;4.43;1.93;;;12.10;99.90;;;;;;5025847;28;20578;-73
2021/12/30 01:38:33;;;;;;;6.13;1.90;;;12.10;99.90;;;;;;5026482;28;20480;-73
2021/12/30 01:41:01;;;;;;;5.27;2.13;;;12.10;99.90;;;;;;5026085;28;20516;-73
2021/12/30 01:43:29;;;;;;;1.37;1.20;;;12.10;99.90;;;;;;5034024;28;20471;-73
2021/12/30 01:45:56;;;;;;;2.93;1.30;;;12.10;99.90;;;;;;5030245;28;20524;-73
2021/12/30 01:48:24;;;;;;;4.40;1.90;;;12.10;99.90;;;;;;5027180;28;20460;-73
2021/12/30 01:50:51;;;;;;;3.43;1.67;;;12.10;99.90;;;;;;5025409;28;20446;-73
2021/12/30 01:53:18;;;;;;;2.90;0.97;;;12.00;99.90;;;;;;5032551;28;20502;-73
2021/12/30 01:55:46;;;;;;;6.37;2.60;;;12.00;99.90;;;;;;5056672;22;20543;-70
2021/12/30 01:58:14;;;;;;;2.70;1.27;;;12.00;99.90;;;;;;5022053;28;21102;-69
2021/12/30 02:00:42;;;;;;;5.20;1.93;;;12.00;99.90;;;;;;5027837;28;20449;-69
2021/12/30 02:03:10;;;;;;;4.17;1.37;;;12.00;99.90;;;;;;5023028;28;21022;-70
2021/12/30 02:05:39;;;;;;;3.60;2.00;;;12.00;99.90;;;;;;5023370;28;20446;-69
2021/12/30 02:08:07;;;;;;;5.67;1.90;;;12.00;99.90;;;;;;5008068;28;20470;-70
2021/12/30 02:10:34;;;;;;;6.10;1.70;;;12.10;99.90;;;;;;5009913;28;20878;-70
2021/12/30 02:13:02;;;;;;;7.40;2.70;;;12.10;99.90;;;;;;5006668;28;20433;-69
2021/12/30 02:15:28;;;;;;;4.33;1.73;;;12.10;99.90;;;;;;5018763;28;20460;-69
2021/12/30 02:17:55;;;;;;;1.73;1.43;;;12.20;99.90;;;;;;5005311;28;20559;-70
2021/12/30 02:20:40;;;;;;;4.57;1.30;;;12.20;99.90;;;;;;5006105;28;20461;-70
2021/12/30 02:23:07;;;;;;;2.40;0.97;;;12.20;99.90;;;;;;5007655;28;20990;-70
2021/12/30 02:25:33;;;;;;;4.43;1.43;;;12.20;99.90;;;;;;5015464;28;20936;-70
2021/12/30 02:28:00;;;;;;;3.90;1.37;;;12.20;99.90;;;;;;5024232;28;20469;-69
2021/12/30 02:30:27;;;;;;;6.40;1.73;;;12.30;99.90;;;;;;5012767;28;20444;-70
2021/12/30 02:32:54;;;;;;;4.93;1.50;;;12.30;99.90;;;;;;5012238;28;20458;-69
2021/12/30 02:35:20;;;;;;;6.77;2.90;;;12.40;99.90;;;;;;5012756;28;20463;-70
2021/12/30 02:37:51;;;;;;;4.83;1.50;;;12.40;99.90;;;;;;5010000;28;20485;-69
2021/12/30 02:40:25;;;;;;;2.63;1.60;;;12.40;99.90;;;;;;5017284;28;20450;-69
2021/12/30 02:42:51;;;;;;;8.80;1.63;;;12.50;99.90;;;;;;5018112;28;20843;-69
2021/12/30 02:45:18;;;;;;;4.17;1.60;;;12.40;99.90;;;;;;5003113;28;20450;-69
2021/12/30 02:47:44;;;;;;;2.17;1.50;;;12.50;99.90;;;;;;5010217;28;21049;-69
2021/12/30 02:50:11;;;;;;;3.30;1.53;;;12.50;99.90;;;;;;5011827;28;20876;-69
2021/12/30 02:52:38;;;;;;;1.93;0.97;;;12.50;99.90;;;;;;5014508;28;20476;-69
2021/12/30 02:55:07;;;;;;;9.90;2.80;;;12.50;99.90;;;;;;5010505;28;20520;-69
2021/12/30 02:57:34;;;;;;;9.40;2.00;;;12.60;99.90;;;;;;5017169;28;20482;-70
2021/12/30 03:00:01;;;;;;;17.93;2.10;;;12.60;99.90;;;;;;5021344;28;20512;-70
2021/12/30 03:02:27;;;;;;;2.60;1.40;;;12.60;99.90;;;;;;5011660;28;20512;-71
2021/12/30 03:04:54;;;;;;;2.47;1.60;;;12.60;99.90;;;;;;5013187;28;20481;-69
2021/12/30 03:07:21;;;;;;;2.90;2.13;;;12.60;99.90;;;;;;5013010;28;20478;-69
2021/12/30 03:09:47;;;;;;;3.37;1.67;;;12.70;99.90;;;;;;5012649;28;20504;-70
2021/12/30 03:12:15;;;;;;;5.10;2.20;;;12.70;99.90;;;;;;5025199;28;20450;-70
2021/12/30 03:14:43;;;;;;;1.93;1.57;;;12.70;99.90;;;;;;5015323;28;20475;-69
2021/12/30 03:17:11;;;;;;;3.47;1.87;;;12.70;99.90;;;;;;5015039;28;20453;-70
2021/12/30 03:19:38;;;;;;;4.37;2.00;;;12.70;99.90;;;;;;5019070;28;20486;-69
2021/12/30 03:22:04;;;;;;;5.70;1.53;;;12.70;99.90;;;;;;5021678;28;20421;-69
2021/12/30 03:24:31;;;;;;;6.90;2.30;;;12.60;99.90;;;;;;5034037;28;20442;-69
2021/12/30 03:26:58;;;;;;;4.70;1.50;;;12.60;99.90;;;;;;5025080;28;20470;-69
2021/12/30 03:29:26;;;;;;;2.70;1.80;;;12.60;99.90;;;;;;5034024;28;20478;-69
2021/12/30 03:31:52;;;;;;;2.50;1.77;;;12.60;99.90;;;;;;5029786;28;20434;-68
2021/12/30 03:34:19;;;;;;;2.07;1.43;;;12.60;99.90;;;;;;5023931;28;20429;-69
2021/12/30 03:36:46;;;;;;;4.90;1.50;;;12.60;99.90;;;;;;5013813;28;20478;-68
2021/12/30 03:39:14;;;;;;;2.37;0.93;;;12.60;99.90;;;;;;5012713;28;20478;-69
2021/12/30 03:41:41;;;;;;;2.47;0.93;;;12.50;99.90;;;;;;5002861;28;20429;-69
2021/12/30 03:44:08;;;;;;;2.90;1.30;;;12.50;99.90;;;;;;5012299;28;20466;-69
2021/12/30 03:46:36;;;;;;;1.83;1.10;;;12.50;99.90;;;;;;5013690;28;20441;-69
2021/12/30 03:49:05;;;;;;;6.27;1.40;;;12.50;99.90;;;;;;5012505;28;20438;-69
2021/12/30 03:51:38;;;;;;;2.03;1.70;;;12.50;99.90;;;;;;5034056;28;20446;-69
2021/12/30 03:54:05;;;;;;;12.93;2.33;;;12.40;99.90;;;;;;5023177;28;20450;-69
2021/12/30 03:56:31;;;;;;;1.37;1.10;;;12.40;99.90;;;;;;5010157;28;20511;-69
2021/12/30 03:58:59;;;;;;;4.63;1.30;;;12.40;99.90;;;;;;5012977;28;21000;-69
2021/12/30 04:01:28;;;;;;;3.10;1.27;;;12.40;99.90;;;;;;5011920;28;20518;-70
2021/12/30 04:03:56;;;;;;;2.73;1.43;;;12.30;99.90;;;;;;5012633;28;20509;-71
2021/12/30 04:06:24;;;;;;;7.57;1.73;;;12.30;99.90;;;;;;5013671;28;20490;-70
2021/12/30 04:08:50;;;;;;;3.33;1.20;;;12.30;99.90;;;;;;5015227;28;20459;-70
2021/12/30 04:11:17;;;;;;;2.40;2.20;;;12.30;99.90;;;;;;5016732;28;20453;-70
2021/12/30 04:13:44;;;;;;;3.90;1.80;;;12.30;99.90;;;;;;5012033;28;20454;-70
2021/12/30 04:16:11;;;;;;;1.50;1.40;;;12.30;99.90;;;;;;5016668;28;20481;-70
2021/12/30 04:18:37;;;;;;;2.30;1.30;;;12.30;99.90;;;;;;5014841;28;21283;-70
2021/12/30 04:21:06;;;;;;;4.50;2.07;;;12.30;99.90;;;;;;5017616;28;20513;-72
2021/12/30 04:23:32;;;;;;;1.73;1.60;;;12.20;99.90;;;;;;5012990;28;20452;-71
2021/12/30 04:25:59;;;;;;;7.10;2.30;;;12.20;99.90;;;;;;5016148;28;20446;-72
2021/12/30 04:28:26;;;;;;;9.07;2.17;;;12.10;99.90;;;;;;5027498;28;20447;-70
2021/12/30 04:30:53;;;;;;;2.07;1.60;;;12.20;99.90;;;;;;5024822;28;20441;-70
2021/12/30 04:33:19;;;;;;;4.30;1.90;;;12.10;99.90;;;;;;5024200;28;20455;-72
2021/12/30 04:35:46;;;;;;;3.13;2.20;;;12.10;99.90;;;;;;5024287;28;20425;-72
2021/12/30 04:38:14;;;;;;;3.60;2.40;;;12.10;99.90;;;;;;5017701;28;20463;-70
2021/12/30 04:40:41;;;;;;;3.93;1.90;;;12.10;99.90;;;;;;5021737;28;20462;-70
2021/12/30 04:43:09;;;;;;;1.60;1.30;;;12.00;99.90;;;;;;5016830;28;20479;-70
2021/12/30 04:45:36;;;;;;;4.60;1.80;;;12.00;99.90;;;;;;5016476;28;20458;-70
2021/12/30 04:48:03;;;;;;;1.63;1.53;;;12.00;99.90;;;;;;5021097;28;20481;-71
2021/12/30 04:50:29;;;;;;;3.73;2.03;;;12.00;99.90;;;;;;5036432;28;20449;-70
2021/12/30 04:52:56;;;;;;;5.80;2.30;;;12.00;99.90;;;;;;5028276;28;20853;-71
2021/12/30 04:55:24;;;;;;;3.40;1.60;;;12.00;99.90;;;;;;5017558;28;20461;-71
2021/12/30 04:57:51;;;;;;;2.87;1.93;;;12.00;99.90;;;;;;5011852;28;20478;-70
2021/12/30 05:00:18;;;;;;;1.90;1.60;;;11.90;99.90;;;;;;5021207;28;20529;-70
2021/12/30 05:03:08;;;;;;;2.27;2.07;;;12.00;99.90;;;;;;5019941;28;20489;-71
2021/12/30 05:05:38;;;;;;;1.43;1.33;;;12.00;99.90;;;;;;5021043;28;20461;-70
2021/12/30 05:08:05;;;;;;;3.03;2.03;;;12.00;99.90;;;;;;5029537;28;20469;-70
2021/12/30 05:10:33;;;;;;;1.43;1.30;;;11.90;99.90;;;;;;5011343;28;20455;-70
2021/12/30 05:13:01;;;;;;;2.10;1.70;;;12.00;99.90;;;;;;5020697;28;21208;-70
2021/12/30 05:15:28;;;;;;;1.90;1.10;;;12.00;99.90;;;;;;5018626;28;20456;-71
2021/12/30 05:17:55;;;;;;;1.60;0.90;;;12.00;99.90;;;;;;5017940;28;20473;-70
2021/12/30 05:20:22;;;;;;;3.70;1.60;;;12.00;99.90;;;;;;5020940;28;20561;-70
2021/12/30 05:22:49;;;;;;;2.27;1.40;;;12.10;99.90;;;;;;5029829;28;20444;-72
2021/12/30 05:25:18;;;;;;;1.93;1.60;;;12.20;99.90;;;;;;5032397;28;20692;-70
2021/12/30 05:27:46;;;;;;;2.27;0.70;;;12.20;99.90;;;;;;5034879;28;20501;-70
2021/12/30 05:30:14;;;;;;;2.07;1.03;;;12.30;99.90;;;;;;5036642;28;20438;-71
2021/12/30 05:32:41;;;;;;;3.50;0.60;;;12.50;99.90;;;;;;5025234;28;20454;-72
2021/12/30 05:35:10;;;;;;;1.47;0.50;;;12.50;99.90;;;;;;5033062;28;20420;-69
2021/12/30 05:37:37;;;;;;;0.90;0.70;;;12.70;99.90;;;;;;5028183;28;21017;-70
2021/12/30 05:40:05;;;;;;;0.60;0.50;;;12.80;99.90;;;;;;5040211;28;20474;-71
2021/12/30 05:42:31;;;;;;;1.10;0.57;;;12.90;99.90;;;;;;5029516;28;20439;-70
2021/12/30 05:44:59;;;;;;;1.53;0.50;;;12.90;99.90;;;;;;5029292;28;20465;-71
2021/12/30 05:47:26;;;;;;;0.70;0.50;;;13.00;99.90;;;;;;5023910;28;20470;-70
2021/12/30 05:49:53;;;;;;;0.70;0.53;;;13.00;99.90;;;;;;5025448;28;20451;-70
2021/12/30 05:52:19;;;;;;;1.07;0.50;;;13.10;99.90;;;;;;5025859;28;20465;-70
2021/12/30 05:54:46;;;;;;;0.50;0.40;;;13.20;99.90;;;;;;5031926;28;20454;-71
2021/12/30 05:57:13;;;;;;;0.63;0.37;;;13.20;99.90;;;;;;5030803;28;20479;-71
2021/12/30 05:59:40;;;;;;;0.70;0.40;;;13.20;99.90;;;;;;5037475;28;20482;-70
2021/12/30 06:02:08;;;;;;;0.50;0.50;;;13.30;99.90;;;;;;5028793;28;20442;-70
2021/12/30 06:04:34;;;;;;;0.67;0.60;;;13.30;99.90;;;;;;5029203;28;20433;-71
2021/12/30 06:07:01;;;;;;;0.50;0.40;;;13.30;99.90;;;;;;5022144;28;20478;-70
2021/12/30 06:09:28;;;;;;;0.57;0.43;;;13.40;99.90;;;;;;5027404;28;20870;-70
2021/12/30 06:11:55;;;;;;;0.63;0.40;;;13.40;99.90;;;;;;5032704;28;20721;-70
2021/12/30 06:14:21;;;;;;;0.80;0.30;;;13.40;99.90;;;;;;5028392;28;20489;-70
2021/12/30 06:16:48;;;;;;;0.60;0.50;;;13.50;99.90;;;;;;5029610;28;20456;-70
2021/12/30 06:19:16;;;;;;;1.13;0.60;;;13.50;99.90;;;;;;5030512;28;20474;-70
2021/12/30 06:21:43;;;;;;;0.70;0.50;;;13.50;99.90;;;;;;5031785;28;20446;-70
2021/12/30 06:24:09;;;;;;;1.43;0.40;;;13.50;99.90;;;;;;5030208;28;20497;-71
2021/12/30 06:26:36;;;;;;;0.70;0.40;;;13.50;99.90;;;;;;5031170;28;20453;-69
2021/12/30 06:29:03;;;;;;;0.60;0.50;;;13.60;99.90;;;;;;5030154;28;20481;-69
2021/12/30 06:31:29;;;;;;;0.63;0.43;;;13.60;99.90;;;;;;5027145;28;20441;-70
2021/12/30 06:33:56;;;;;;;0.90;0.60;;;13.70;99.90;;;;;;5034152;28;20661;-70
2021/12/30 06:36:24;;;;;;;6.70;0.77;;;13.70;99.90;;;;;;5032392;28;20479;-69
2021/12/30 06:38:52;;;;;;;2.00;0.60;;;13.70;99.90;;;;;;5029676;28;20454;-69
2021/12/30 06:41:19;;;;;;;0.70;0.57;;;13.80;99.90;;;;;;5024985;28;20448;-70
2021/12/30 06:43:45;;;;;;;0.50;0.50;;;13.80;99.90;;;;;;5035537;28;20443;-69
2021/12/30 06:46:12;;;;;;;0.80;0.60;;;13.90;99.90;;;;;;5033997;28;20465;-70
2021/12/30 06:48:44;;;;;;;1.00;0.70;;;14.00;99.90;;;;;;5042256;28;20477;-70
2021/12/30 06:51:11;;;;;;;1.20;0.80;;;14.00;99.90;;;;;;5027021;28;20498;-69
2021/12/30 06:53:39;;;;;;;1.00;0.77;;;14.00;99.90;;;;;;5038577;28;20476;-70
2021/12/30 06:56:06;;;;;;;1.57;0.97;;;14.10;99.90;;;;;;5034944;28;20540;-70
2021/12/30 06:58:35;;;;;;;0.80;0.77;;;14.20;99.90;;;;;;5039619;28;20466;-69
2021/12/30 07:01:02;;;;;;;0.80;0.80;;;14.10;99.90;;;;;;5037296;28;20508;-69
2021/12/30 07:03:29;;;;;;;0.90;0.67;;;14.20;99.90;;;;;;5040377;28;20450;-70
2021/12/30 07:05:56;;;;;;;1.10;0.60;;;14.20;99.90;;;;;;5034886;28;20469;-70
2021/12/30 07:08:23;;;;;;;1.00;0.90;;;14.20;99.90;;;;;;5036340;28;20450;-69
2021/12/30 07:10:52;;;;;;;0.80;0.77;;;14.30;99.90;;;;;;5036110;28;20480;-70
2021/12/30 07:13:18;;;;;;;3.13;0.97;;;14.30;99.90;;;;;;5047079;28;20472;-71
2021/12/30 07:15:45;;;;;;;0.87;0.80;;;14.30;99.90;;;;;;5040032;28;20442;-70
2021/12/30 07:18:11;;;;;;;0.70;0.63;;;14.30;99.90;;;;;;5041877;28;20446;-71
2021/12/30 07:20:38;;;;;;;2.00;0.80;;;14.30;99.90;;;;;;5033590;28;20486;-71
2021/12/30 07:23:05;;;;;;;1.43;1.03;;;14.30;99.90;;;;;;5043649;28;20420;-70
2021/12/30 07:25:31;;;;;;;0.63;0.60;;;14.30;99.90;;;;;;5046372;28;20485;-70
2021/12/30 07:28:01;;;;;;;1.50;1.00;;;14.40;99.90;;;;;;5037576;28;20467;-70
2021/12/30 07:30:28;;;;;;;0.97;0.73;;;14.30;99.90;;;;;;5036706;28;20493;-70
2021/12/30 07:32:55;;;;;;;0.83;0.80;;;14.40;99.90;;;;;;5034681;28;20471;-71
2021/12/30 07:35:23;;;;;;;1.33;0.83;;;14.40;99.90;;;;;;5035192;28;20425;-69
2021/12/30 07:37:51;;;;;;;2.00;0.87;;;14.40;99.90;;;;;;5036170;28;20454;-68
2021/12/30 07:40:18;;;;;;;0.80;0.80;;;14.40;99.90;;;;;;5038108;28;20552;-68
2021/12/30 07:42:44;;;;;;;0.87;0.87;;;14.30;99.90;;;;;;5031828;28;20448;-69
2021/12/30 07:45:13;;;;;;;1.20;0.90;;;14.40;99.90;;;;;;5031036;28;20485;-71
2021/12/30 07:47:41;;;;;;;1.33;0.80;;;14.40;99.90;;;;;;5038161;28;20437;-70
2021/12/30 07:50:09;;;;;;;0.90;0.80;;;14.40;99.90;;;;;;5054131;28;20446;-69
2021/12/30 07:52:36;;;;;;;0.83;0.83;;;14.40;99.90;;;;;;5036238;28;20447;-70
2021/12/30 07:55:05;;;;;;;1.40;1.17;;;14.50;99.90;;;;;;5031426;28;20462;-70
2021/12/30 07:57:31;;;;;;;0.90;0.83;;;14.50;99.90;;;;;;5055429;22;20495;-71
2021/12/30 07:59:58;;;;;;;1.07;1.00;;;14.50;99.90;;;;;;5035348;28;20484;-68
2021/12/30 08:02:26;;;;;;;0.80;0.80;;;14.50;99.90;;;;;;5044739;28;20524;-71
2021/12/30 08:04:53;;;;;;;1.10;1.00;;;14.50;99.90;;;;;;5043598;28;20475;-72
2021/12/30 08:07:22;;;;;;;0.70;0.70;;;14.40;99.90;;;;;;5049543;28;20507;-74
2021/12/30 08:09:49;;;;;;;1.70;1.20;;;14.40;99.90;;;;;;5044273;28;20501;-73
2021/12/30 08:12:16;;;;;;;0.60;0.60;;;14.40;99.90;;;;;;5042511;28;20444;-72
2021/12/30 08:14:43;;;;;;;1.23;0.93;;;14.50;99.90;;;;;;5036311;28;20435;-73
2021/12/30 08:17:09;;;;;;;1.37;0.70;;;14.40;99.90;;;;;;5040767;28;21024;-73
2021/12/30 08:19:37;;;;;;;1.50;0.90;;;14.50;99.90;;;;;;5057297;28;20552;-73
2021/12/30 08:22:05;;;;;;;1.10;0.63;;;14.50;99.90;;;;;;5047058;28;20430;-73
2021/12/30 08:24:31;;;;;;;0.60;0.50;;;14.50;99.90;;;;;;5047531;28;20452;-73
2021/12/30 08:26:59;;;;;;;2.60;1.20;;;14.60;99.90;;;;;;5043262;28;20856;-73
2021/12/30 08:29:26;;;;;;;0.70;0.50;;;14.50;99.90;;;;;;5040537;28;20767;-73
2021/12/30 08:31:53;;;;;;;0.80;0.70;;;14.50;99.90;;;;;;5039800;28;20630;-72
2021/12/30 08:34:20;;;;;;;0.60;0.50;;;14.50;99.90;;;;;;5039285;28;20506;-72
2021/12/30 08:36:49;;;;;;;1.73;0.87;;;14.60;99.90;;;;;;5039518;28;20472;-72
2021/12/30 08:39:15;;;;;;;2.10;0.97;;;14.60;99.90;;;;;;5039635;28;20943;-72
2021/12/30 08:41:42;;;;;;;0.97;0.70;;;14.60;99.90;;;;;;5040008;28;20467;-72
2021/12/30 08:44:09;;;;;;;1.23;0.97;;;14.60;99.90;;;;;;5043373;28;20468;-71
2021/12/30 08:46:35;;;;;;;0.90;0.77;;;14.60;99.90;;;;;;5057406;28;20476;-72
2021/12/30 08:49:02;;;;;;;0.93;0.90;;;14.50;99.90;;;;;;5049747;28;20510;-72
2021/12/30 08:51:30;;;;;;;1.00;0.77;;;14.50;99.90;;;;;;5046971;28;20582;-72
2021/12/30 08:53:58;;;;;;;1.80;0.93;;;14.50;99.90;;;;;;5050784;28;20559;-72
2021/12/30 08:56:24;;;;;;;1.63;0.90;;;14.50;99.90;;;;;;5044467;28;20946;-72
2021/12/30 08:58:51;;;;;;;0.80;0.60;;;14.50;99.90;;;;;;5044910;28;20848;-72
2021/12/30 09:01:18;;;;;;;1.20;0.90;;;14.40;99.90;;;;;;5047382;28;20484;-72
2021/12/30 09:03:44;;;;;;;0.77;0.50;;;14.40;99.90;;;;;;5045860;28;20917;-72
2021/12/30 09:06:11;;;;;;;0.60;0.60;;;14.30;99.90;;;;;;5046434;28;20566;-71
2021/12/30 09:08:38;;;;;;;0.80;0.80;;;14.20;99.90;;;;;;5042762;28;20601;-71
2021/12/30 09:11:06;;;;;;;0.63;0.50;;;14.30;99.90;;;;;;5045709;28;20533;-74
2021/12/30 09:13:32;;;;;;;0.90;0.80;;;14.30;99.90;;;;;;5042857;28;20953;-71
2021/12/30 09:16:00;;;;;;;3.77;1.20;;;14.40;99.90;;;;;;5043976;28;20981;-71
2021/12/30 09:18:27;;;;;;;1.60;0.93;;;14.50;99.90;;;;;;5043195;28;20572;-71
2021/12/30 09:20:54;;;;;;;1.10;0.83;;;14.60;99.90;;;;;;5044009;28;20798;-71
2021/12/30 09:23:21;;;;;;;1.23;1.10;;;14.60;99.90;;;;;;5044440;28;20568;-71
2021/12/30 09:25:48;;;;;;;0.60;0.60;;;14.70;99.90;;;;;;5042474;28;20456;-70
2021/12/30 09:28:17;;;;;;;1.00;0.90;;;14.80;99.90;;;;;;5036380;28;20618;-70
2021/12/30 09:30:45;;;;;;;1.20;1.00;;;14.80;99.90;;;;;;5044004;28;20878;-73
2021/12/30 09:33:15;;;;;;;1.10;1.00;;;14.90;99.90;;;;;;5044321;28;20564;-73
2021/12/30 09:35:42;;;;;;;1.00;0.80;;;14.90;99.90;;;;;;5045792;28;20862;-71
2021/12/30 09:38:09;;;;;;;0.83;0.83;;;14.80;99.90;;;;;;5047487;28;20481;-71
2021/12/30 09:40:36;;;;;;;1.23;0.90;;;14.90;99.90;;;;;;5044909;28;20480;-72
2021/12/30 09:43:04;;;;;;;0.90;0.70;;;14.90;99.90;;;;;;5044347;28;20541;-72
2021/12/30 09:45:36;;;;;;;1.03;1.00;;;14.90;99.90;;;;;;5040719;28;20460;-69
2021/12/30 09:48:06;;;;;;;0.83;0.63;;;14.90;99.90;;;;;;5042651;28;20546;-69
2021/12/30 09:50:35;;;;;;;0.70;0.70;;;14.90;99.90;;;;;;5043503;28;20546;-68
2021/12/30 09:53:03;;;;;;;0.50;0.50;;;15.00;99.90;;;;;;5047976;28;20716;-70
2021/12/30 09:55:31;;;;;;;0.70;0.50;;;15.00;99.90;;;;;;5046099;28;20805;-69
2021/12/30 09:57:58;;;;;;;0.90;0.60;;;15.20;99.90;;;;;;5045927;28;20880;-70
2021/12/30 10:00:25;;;;;;;0.60;0.50;;;15.20;99.90;;;;;;5045558;28;20484;-68
2021/12/30 10:02:53;;;;;;;0.50;0.43;;;15.30;99.90;;;;;;5045173;28;20423;-69
2021/12/30 10:05:24;;;;;;;0.60;0.40;;;15.40;99.90;;;;;;5045627;28;20551;-69
2021/12/30 10:08:08;;;;;;;0.50;0.30;;;15.40;99.90;;;;;;5064276;28;20544;-70
2021/12/30 10:10:38;;;;;;;0.73;0.30;;;15.40;99.90;;;;;;5048010;28;20444;-71
2021/12/30 10:13:21;;;;;;;0.60;0.50;;;15.30;99.90;;;;;;5056873;28;20494;-69
2021/12/30 10:15:50;;;;;;;0.50;0.50;;;15.40;99.90;;;;;;5045931;28;20598;-69
2021/12/30 10:18:19;;;;;;;0.50;0.40;;;15.40;99.90;;;;;;5045782;28;20620;-68
2021/12/30 10:20:47;;;;;;;0.50;0.40;;;15.40;99.90;;;;;;5042417;28;20466;-70
2021/12/30 10:23:16;;;;;;;0.50;0.40;;;15.30;99.90;;;;;;5054096;28;20817;-68
2021/12/30 10:25:45;;;;;;;0.40;0.30;;;15.10;99.90;;;;;;5043323;28;20847;-69
2021/12/30 10:28:26;;;;;;;1.73;0.50;;;15.00;99.90;;;;;;5042370;28;20870;-69
2021/12/30 10:30:56;;;;;;;0.60;0.47;;;14.90;99.90;;;;;;5045021;28;20456;-68
2021/12/30 10:33:26;;;;;;;0.83;0.40;;;14.80;99.90;;;;;;5046728;28;20442;-69
2021/12/30 10:35:54;;;;;;;0.50;0.33;;;14.70;99.90;;;;;;5045670;28;20940;-67
2021/12/30 10:38:22;;;;;;;0.60;0.43;;;14.70;99.90;;;;;;5045787;28;20457;-68
2021/12/30 10:40:51;;;;;;;0.67;0.40;;;14.70;99.90;;;;;;5046135;28;20952;-67
2021/12/30 10:43:28;;;;;;;0.50;0.50;;;14.80;99.90;;;;;;5047616;28;20552;-67
2021/12/30 10:46:19;;;;;;;0.93;0.47;;;14.80;99.90;;;;;;5046328;28;20613;-69
2021/12/30 10:48:54;;;;;;;0.60;0.53;;;14.90;99.90;;;;;;5039686;28;20816;-70
2021/12/30 10:51:22;;;;;;;1.00;0.60;;;15.00;99.90;;;;;;5050074;28;20516;-69
2021/12/30 10:53:50;;;;;;;1.43;0.40;;;15.10;99.90;;;;;;5041988;28;20725;-69
2021/12/30 10:56:29;;;;;;;1.53;0.63;;;15.20;99.90;;;;;;5043503;28;20463;-71
2021/12/30 10:59:08;;;;;;;0.70;0.40;;;15.30;99.90;;;;;;5033222;28;20464;-67
2021/12/30 11:01:39;;;;;;;1.40;0.80;;;15.40;99.90;;;;;;5044491;28;20480;-69
2021/12/30 11:04:07;;;;;;;0.50;0.33;;;15.50;99.90;;;;;;5044688;28;20479;-69
2021/12/30 11:06:34;;;;;;;0.60;0.60;;;15.60;99.90;;;;;;5042726;28;20497;-70
2021/12/30 11:09:13;;;;;;;0.60;0.47;;;15.70;99.90;;;;;;5044036;28;20507;-69
2021/12/30 11:11:47;;;;;;;0.70;0.70;;;15.80;99.90;;;;;;5045345;28;20430;-71
2021/12/30 11:14:17;;;;;;;2.23;1.10;;;15.70;99.90;;;;;;5045279;28;20452;-70
2021/12/30 11:16:58;;;;;;;1.27;1.17;;;15.80;99.90;;;;;;5045593;28;20961;-69
2021/12/30 11:19:26;;;;;;;2.30;1.07;;;15.80;99.90;;;;;;5054278;28;20502;-70
2021/12/30 11:21:54;;;;;;;2.83;1.00;;;15.80;99.90;;;;;;5045562;28;20491;-69
2021/12/30 11:24:21;;;;;;;0.90;0.90;;;15.80;99.90;;;;;;5048567;28;20442;-70
2021/12/30 11:26:48;;;;;;;3.63;1.00;;;15.80;99.90;;;;;;5048062;28;20496;-70
2021/12/30 11:29:15;;;;;;;0.80;0.70;;;15.80;99.90;;;;;;5048587;28;20584;-70
2021/12/30 11:31:41;;;;;;;1.77;0.93;;;15.80;99.90;;;;;;5048663;28;20455;-70
2021/12/30 11:34:08;;;;;;;1.10;0.80;;;15.90;99.90;;;;;;5049226;28;20431;-70
2021/12/30 11:36:36;;;;;;;1.00;0.83;;;15.80;99.90;;;;;;5056644;28;20577;-70
2021/12/30 11:39:11;;;;;;;1.00;0.87;;;15.80;99.90;;;;;;5051320;28;20443;-70
2021/12/30 11:41:39;;;;;;;2.70;0.83;;;15.90;99.90;;;;;;5044968;28;20567;-70
2021/12/30 11:44:06;;;;;;;1.00;0.90;;;15.90;99.90;;;;;;5049389;28;20551;-70
2021/12/30 11:46:41;;;;;;;2.87;1.77;;;16.00;99.90;;;;;;5044788;28;20461;-69
2021/12/30 11:49:09;;;;;;;1.00;0.90;;;16.10;99.90;;;;;;5048311;28;20802;-70
2021/12/30 11:51:46;;;;;;;2.23;1.23;;;16.20;99.90;;;;;;5040955;28;20474;-70
2021/12/30 11:54:36;;;;;;;2.07;0.80;;;16.30;99.90;;;;;;5048768;28;20452;-70
2021/12/30 11:57:31;;;;;;;0.90;0.63;;;16.30;99.90;;;;;;5045629;28;20484;-70
2021/12/30 12:00:00;;;;;;;1.40;0.87;;;16.40;99.90;;;;;;5040488;28;20456;-70
2021/12/30 12:02:32;;;;;;;2.63;0.93;;;16.50;99.90;;;;;;5050551;28;20553;-70
2021/12/30 12:04:59;;;;;;;1.17;1.00;;;16.60;99.90;;;;;;5062063;28;20491;-70
2021/12/30 12:07:27;;;;;;;3.10;1.00;;;16.60;99.90;;;;;;5048377;28;20530;-70
2021/12/30 12:09:54;;;;;;;2.00;1.23;;;16.60;99.90;;;;;;5048195;28;20483;-69
2021/12/30 12:12:34;;;;;;;1.33;0.97;;;16.70;99.90;;;;;;5048087;28;20799;-70
2021/12/30 12:15:02;;;;;;;2.90;0.80;;;16.70;99.90;;;;;;5044966;28;20827;-70
2021/12/30 12:17:38;;;;;;;0.70;0.57;;;16.80;99.90;;;;;;5047873;28;20477;-70
2021/12/30 12:20:21;;;;;;;1.20;0.70;;;16.80;99.90;;;;;;5047840;28;20513;-70
2021/12/30 12:22:49;;;;;;;1.47;1.13;;;16.80;99.90;;;;;;5048133;28;20488;-70
2021/12/30 12:25:18;;;;;;;0.70;0.67;;;16.90;99.90;;;;;;5060704;28;20430;-70
2021/12/30 12:27:47;;;;;;;0.60;0.50;;;16.80;99.90;;;;;;5047796;28;20560;-70
2021/12/30 12:30:27;;;;;;;0.80;0.70;;;16.80;99.90;;;;;;5047766;28;20901;-70
2021/12/30 12:32:54;;;;;;;0.97;0.90;;;16.70;99.90;;;;;;5047430;28;20427;-70
2021/12/30 12:35:28;;;;;;;0.80;0.80;;;16.70;99.90;;;;;;5046545;28;20452;-70
2021/12/30 12:37:59;;;;;;;0.80;0.67;;;16.70;99.90;;;;;;5047334;28;20538;-70
2021/12/30 12:40:36;;;;;;;0.60;0.60;;;16.80;99.90;;;;;;5046325;28;20444;-70
2021/12/30 12:43:10;;;;;;;1.30;0.80;;;16.70;99.90;;;;;;5047716;28;20573;-70
2021/12/30 12:45:40;;;;;;;1.20;0.70;;;16.60;99.90;;;;;;5047906;28;20450;-70
2021/12/30 12:48:39;;;;;;;0.80;0.70;;;16.60;99.90;;;;;;5058899;28;20534;-70
2021/12/30 12:51:09;;;;;;;1.20;0.70;;;16.60;99.90;;;;;;5047385;28;20589;-70
2021/12/30 12:54:02;;;;;;;1.57;1.00;;;16.50;99.90;;;;;;5042942;28;20444;-70